sensor_id;sensor_type;location;lat;lon;timestamp;temperature;humidity
24468;DHT22;12634;50.852;5.676;2023-12-20T00:02:17;8.00;99.90
24468;DHT22;12634;50.852;5.676;2023-12-20T00:04:44;7.90;99.90
24468;DHT22;12634;50.852;5.676;2023-12-20T00:07:11;7.70;99.90
24468;DHT22;12634;50.852;5.676;2023-12-20T00:09:39;7.60;99.90
24468;DHT22;12634;50.852;5.676;2023-12-20T00:12:06;7.40;99.90
24468;DHT22;12634;50.852;5.676;2023-12-20T00:14:33;7.20;99.90
24468;DHT22;12634;50.852;5.676;2023-12-20T00:17:02;6.90;99.90
24468;DHT22;12634;50.852;5.676;2023-12-20T00:19:29;6.90;99.90
24468;DHT22;12634;50.852;5.676;2023-12-20T00:21:56;6.70;99.90
24468;DHT22;12634;50.852;5.676;2023-12-20T00:24:25;6.60;99.90
24468;DHT22;12634;50.852;5.676;2023-12-20T00:26:52;6.40;99.90
24468;DHT22;12634;50.852;5.676;2023-12-20T00:29:19;6.30;99.90
24468;DHT22;12634;50.852;5.676;2023-12-20T00:31:46;6.30;99.90
24468;DHT22;12634;50.852;5.676;2023-12-20T00:34:15;6.30;99.90
24468;DHT22;12634;50.852;5.676;2023-12-20T00:36:42;6.40;99.90
24468;DHT22;12634;50.852;5.676;2023-12-20T00:39:09;6.30;99.90
24468;DHT22;12634;50.852;5.676;2023-12-20T00:41:36;6.30;99.90
24468;DHT22;12634;50.852;5.676;2023-12-20T00:44:04;6.30;99.90
24468;DHT22;12634;50.852;5.676;2023-12-20T00:46:31;6.30;99.90
24468;DHT22;12634;50.852;5.676;2023-12-20T00:48:58;6.30;99.90
24468;DHT22;12634;50.852;5.676;2023-12-20T00:51:27;6.20;99.90
24468;DHT22;12634;50.852;5.676;2023-12-20T00:53:54;6.10;99.90
24468;DHT22;12634;50.852;5.676;2023-12-20T00:56:21;6.10;99.90
24468;DHT22;12634;50.852;5.676;2023-12-20T00:58:49;6.20;99.90
24468;DHT22;12634;50.852;5.676;2023-12-20T01:01:16;6.10;99.90
24468;DHT22;12634;50.852;5.676;2023-12-20T01:03:43;6.10;99.90
24468;DHT22;12634;50.852;5.676;2023-12-20T01:06:11;6.10;99.90
24468;DHT22;12634;50.852;5.676;2023-12-20T01:08:39;6.10;99.90
24468;DHT22;12634;50.852;5.676;2023-12-20T01:11:06;6.10;99.90
24468;DHT22;12634;50.852;5.676;2023-12-20T01:13:33;6.10;99.90
24468;DHT22;12634;50.852;5.676;2023-12-20T01:16:01;6.10;99.90
24468;DHT22;12634;50.852;5.676;2023-12-20T01:18:28;6.10;99.90
24468;DHT22;12634;50.852;5.676;2023-12-20T01:20:55;6.10;99.90
24468;DHT22;12634;50.852;5.676;2023-12-20T01:23:22;6.00;99.90
24468;DHT22;12634;50.852;5.676;2023-12-20T01:25:51;6.00;99.90
24468;DHT22;12634;50.852;5.676;2023-12-20T01:28:19;6.00;99.90
24468;DHT22;12634;50.852;5.676;2023-12-20T01:30:46;6.00;99.90
24468;DHT22;12634;50.852;5.676;2023-12-20T01:33:13;6.00;99.90
24468;DHT22;12634;50.852;5.676;2023-12-20T01:35:41;6.00;99.90
24468;DHT22;12634;50.852;5.676;2023-12-20T01:38:10;6.00;99.90
24468;DHT22;12634;50.852;5.676;2023-12-20T01:40:38;6.00;99.90
24468;DHT22;12634;50.852;5.676;2023-12-20T01:43:08;6.00;99.90
24468;DHT22;12634;50.852;5.676;2023-12-20T01:45:35;6.00;99.90
24468;DHT22;12634;50.852;5.676;2023-12-20T01:48:03;6.00;99.90
24468;DHT22;12634;50.852;5.676;2023-12-20T01:50:32;6.10;99.90
24468;DHT22;12634;50.852;5.676;2023-12-20T01:53:00;6.10;99.90
24468;DHT22;12634;50.852;5.676;2023-12-20T01:55:30;6.10;99.90
24468;DHT22;12634;50.852;5.676;2023-12-20T01:57:59;6.10;99.90
24468;DHT22;12634;50.852;5.676;2023-12-20T02:00:28;6.10;99.90
24468;DHT22;12634;50.852;5.676;2023-12-20T02:02:57;6.10;99.90
24468;DHT22;12634;50.852;5.676;2023-12-20T02:05:27;6.00;99.90
24468;DHT22;12634;50.852;5.676;2023-12-20T02:07:55;6.00;99.90
24468;DHT22;12634;50.852;5.676;2023-12-20T02:10:22;5.90;99.90
24468;DHT22;12634;50.852;5.676;2023-12-20T02:12:49;5.90;99.90
24468;DHT22;12634;50.852;5.676;2023-12-20T02:15:16;5.90;99.90
24468;DHT22;12634;50.852;5.676;2023-12-20T02:17:45;5.90;99.90
24468;DHT22;12634;50.852;5.676;2023-12-20T02:20:14;5.90;99.90
24468;DHT22;12634;50.852;5.676;2023-12-20T02:22:42;6.00;99.90
24468;DHT22;12634;50.852;5.676;2023-12-20T02:25:09;5.90;99.90
24468;DHT22;12634;50.852;5.676;2023-12-20T02:27:37;5.90;99.90
24468;DHT22;12634;50.852;5.676;2023-12-20T02:30:05;5.90;99.90
24468;DHT22;12634;50.852;5.676;2023-12-20T02:32:32;5.90;99.90
24468;DHT22;12634;50.852;5.676;2023-12-20T02:34:59;5.90;99.90
24468;DHT22;12634;50.852;5.676;2023-12-20T02:37:27;5.90;99.90
24468;DHT22;12634;50.852;5.676;2023-12-20T02:39:55;5.80;99.90
24468;DHT22;12634;50.852;5.676;2023-12-20T02:42:22;5.70;99.90
24468;DHT22;12634;50.852;5.676;2023-12-20T02:44:49;5.70;99.90
24468;DHT22;12634;50.852;5.676;2023-12-20T02:47:16;5.60;99.90
24468;DHT22;12634;50.852;5.676;2023-12-20T02:49:44;5.60;99.90
24468;DHT22;12634;50.852;5.676;2023-12-20T02:52:11;5.60;99.90
24468;DHT22;12634;50.852;5.676;2023-12-20T02:54:38;5.50;99.90
24468;DHT22;12634;50.852;5.676;2023-12-20T02:57:08;5.40;99.90
24468;DHT22;12634;50.852;5.676;2023-12-20T02:59:35;5.40;99.90
24468;DHT22;12634;50.852;5.676;2023-12-20T03:02:02;5.50;99.90
24468;DHT22;12634;50.852;5.676;2023-12-20T03:04:29;5.60;99.90
24468;DHT22;12634;50.852;5.676;2023-12-20T03:06:56;5.50;99.90
24468;DHT22;12634;50.852;5.676;2023-12-20T03:09:23;5.50;99.90
24468;DHT22;12634;50.852;5.676;2023-12-20T03:11:50;5.50;99.90
24468;DHT22;12634;50.852;5.676;2023-12-20T03:14:19;5.40;99.90
24468;DHT22;12634;50.852;5.676;2023-12-20T03:16:47;5.30;99.90
24468;DHT22;12634;50.852;5.676;2023-12-20T03:19:16;5.40;99.90
24468;DHT22;12634;50.852;5.676;2023-12-20T03:21:43;5.30;99.90
24468;DHT22;12634;50.852;5.676;2023-12-20T03:24:11;5.40;99.90
24468;DHT22;12634;50.852;5.676;2023-12-20T03:26:39;5.40;99.90
24468;DHT22;12634;50.852;5.676;2023-12-20T03:29:06;5.40;99.90
24468;DHT22;12634;50.852;5.676;2023-12-20T03:31:34;5.50;99.90
24468;DHT22;12634;50.852;5.676;2023-12-20T03:34:01;5.40;99.90
24468;DHT22;12634;50.852;5.676;2023-12-20T03:36:28;5.40;99.90
24468;DHT22;12634;50.852;5.676;2023-12-20T03:38:56;5.40;99.90
24468;DHT22;12634;50.852;5.676;2023-12-20T03:41:23;5.50;99.90
24468;DHT22;12634;50.852;5.676;2023-12-20T03:43:50;5.50;99.90
24468;DHT22;12634;50.852;5.676;2023-12-20T03:46:17;5.60;99.90
24468;DHT22;12634;50.852;5.676;2023-12-20T03:48:45;5.70;99.90
24468;DHT22;12634;50.852;5.676;2023-12-20T03:51:13;5.70;99.90
24468;DHT22;12634;50.852;5.676;2023-12-20T03:53:40;5.70;99.90
24468;DHT22;12634;50.852;5.676;2023-12-20T03:56:07;5.70;99.90
24468;DHT22;12634;50.852;5.676;2023-12-20T03:58:34;5.80;99.90
24468;DHT22;12634;50.852;5.676;2023-12-20T04:01:01;5.80;99.90
24468;DHT22;12634;50.852;5.676;2023-12-20T04:03:29;5.90;99.90
24468;DHT22;12634;50.852;5.676;2023-12-20T04:05:58;5.80;99.90
24468;DHT22;12634;50.852;5.676;2023-12-20T04:08:25;5.90;99.90
24468;DHT22;12634;50.852;5.676;2023-12-20T04:10:52;5.90;99.90
24468;DHT22;12634;50.852;5.676;2023-12-20T04:13:19;5.90;99.90
24468;DHT22;12634;50.852;5.676;2023-12-20T04:15:46;6.00;99.90
24468;DHT22;12634;50.852;5.676;2023-12-20T04:18:15;6.00;99.90
24468;DHT22;12634;50.852;5.676;2023-12-20T04:20:43;5.90;99.90
24468;DHT22;12634;50.852;5.676;2023-12-20T04:23:12;6.00;99.90
24468;DHT22;12634;50.852;5.676;2023-12-20T04:25:39;6.00;99.90
24468;DHT22;12634;50.852;5.676;2023-12-20T04:28:06;6.10;99.90
24468;DHT22;12634;50.852;5.676;2023-12-20T04:30:33;6.10;99.90
24468;DHT22;12634;50.852;5.676;2023-12-20T04:33:00;6.10;99.90
24468;DHT22;12634;50.852;5.676;2023-12-20T04:35:29;6.10;99.90
24468;DHT22;12634;50.852;5.676;2023-12-20T04:37:56;6.10;99.90
24468;DHT22;12634;50.852;5.676;2023-12-20T04:40:24;6.20;99.90
24468;DHT22;12634;50.852;5.676;2023-12-20T04:42:51;6.20;99.90
24468;DHT22;12634;50.852;5.676;2023-12-20T04:45:18;6.20;99.90
24468;DHT22;12634;50.852;5.676;2023-12-20T04:47:45;6.20;99.90
24468;DHT22;12634;50.852;5.676;2023-12-20T04:50:13;6.20;99.90
24468;DHT22;12634;50.852;5.676;2023-12-20T04:52:40;6.20;99.90
24468;DHT22;12634;50.852;5.676;2023-12-20T04:55:07;6.20;99.90
24468;DHT22;12634;50.852;5.676;2023-12-20T04:57:36;6.20;99.90
24468;DHT22;12634;50.852;5.676;2023-12-20T05:00:04;6.20;99.90
24468;DHT22;12634;50.852;5.676;2023-12-20T05:02:31;6.20;99.90
24468;DHT22;12634;50.852;5.676;2023-12-20T05:04:58;6.10;99.90
24468;DHT22;12634;50.852;5.676;2023-12-20T05:07:26;6.10;99.90
24468;DHT22;12634;50.852;5.676;2023-12-20T05:09:53;6.20;99.90
24468;DHT22;12634;50.852;5.676;2023-12-20T05:12:20;6.20;99.90
24468;DHT22;12634;50.852;5.676;2023-12-20T05:14:48;6.20;99.90
24468;DHT22;12634;50.852;5.676;2023-12-20T05:17:15;6.20;99.90
24468;DHT22;12634;50.852;5.676;2023-12-20T05:19:42;6.20;99.90
24468;DHT22;12634;50.852;5.676;2023-12-20T05:22:10;6.10;99.90
24468;DHT22;12634;50.852;5.676;2023-12-20T05:24:37;6.10;99.90
24468;DHT22;12634;50.852;5.676;2023-12-20T05:27:04;6.20;99.90
24468;DHT22;12634;50.852;5.676;2023-12-20T05:29:32;6.20;99.90
24468;DHT22;12634;50.852;5.676;2023-12-20T05:32:00;6.20;99.90
24468;DHT22;12634;50.852;5.676;2023-12-20T05:34:28;6.10;99.90
24468;DHT22;12634;50.852;5.676;2023-12-20T05:36:55;6.10;99.90
24468;DHT22;12634;50.852;5.676;2023-12-20T05:39:22;6.00;99.90
24468;DHT22;12634;50.852;5.676;2023-12-20T05:41:49;6.00;99.90
24468;DHT22;12634;50.852;5.676;2023-12-20T05:44:16;5.90;99.90
24468;DHT22;12634;50.852;5.676;2023-12-20T05:46:43;5.90;99.90
24468;DHT22;12634;50.852;5.676;2023-12-20T05:49:12;6.00;99.90
24468;DHT22;12634;50.852;5.676;2023-12-20T05:51:39;6.00;99.90
24468;DHT22;12634;50.852;5.676;2023-12-20T05:54:06;6.00;99.90
24468;DHT22;12634;50.852;5.676;2023-12-20T05:56:33;6.00;99.90
24468;DHT22;12634;50.852;5.676;2023-12-20T05:59:00;6.00;99.90
24468;DHT22;12634;50.852;5.676;2023-12-20T06:01:27;5.90;99.90
24468;DHT22;12634;50.852;5.676;2023-12-20T06:03:54;6.00;99.90
24468;DHT22;12634;50.852;5.676;2023-12-20T06:06:23;6.00;99.90
24468;DHT22;12634;50.852;5.676;2023-12-20T06:08:50;6.00;99.90
24468;DHT22;12634;50.852;5.676;2023-12-20T06:11:18;5.90;99.90
24468;DHT22;12634;50.852;5.676;2023-12-20T06:13:45;5.90;99.90
24468;DHT22;12634;50.852;5.676;2023-12-20T06:16:12;5.80;99.90
24468;DHT22;12634;50.852;5.676;2023-12-20T06:18:40;5.60;99.90
24468;DHT22;12634;50.852;5.676;2023-12-20T06:21:07;5.70;99.90
24468;DHT22;12634;50.852;5.676;2023-12-20T06:23:40;5.50;99.90
24468;DHT22;12634;50.852;5.676;2023-12-20T06:26:07;5.50;99.90
24468;DHT22;12634;50.852;5.676;2023-12-20T06:28:34;5.50;99.90
24468;DHT22;12634;50.852;5.676;2023-12-20T06:31:01;5.50;99.90
24468;DHT22;12634;50.852;5.676;2023-12-20T06:33:28;5.40;99.90
24468;DHT22;12634;50.852;5.676;2023-12-20T06:35:56;5.40;99.90
24468;DHT22;12634;50.852;5.676;2023-12-20T06:38:24;5.30;99.90
24468;DHT22;12634;50.852;5.676;2023-12-20T06:40:52;5.40;99.90
24468;DHT22;12634;50.852;5.676;2023-12-20T06:43:19;5.40;99.90
24468;DHT22;12634;50.852;5.676;2023-12-20T06:45:47;5.30;99.90
24468;DHT22;12634;50.852;5.676;2023-12-20T06:48:14;5.30;99.90
24468;DHT22;12634;50.852;5.676;2023-12-20T06:50:41;5.30;99.90
24468;DHT22;12634;50.852;5.676;2023-12-20T06:53:08;5.50;99.90
24468;DHT22;12634;50.852;5.676;2023-12-20T06:55:36;5.50;99.90
24468;DHT22;12634;50.852;5.676;2023-12-20T06:58:05;5.60;99.90
24468;DHT22;12634;50.852;5.676;2023-12-20T07:00:32;5.60;99.90
24468;DHT22;12634;50.852;5.676;2023-12-20T07:02:59;5.70;99.90
24468;DHT22;12634;50.852;5.676;2023-12-20T07:05:27;5.70;99.90
24468;DHT22;12634;50.852;5.676;2023-12-20T07:07:54;5.70;99.90
24468;DHT22;12634;50.852;5.676;2023-12-20T07:10:21;5.70;99.90
24468;DHT22;12634;50.852;5.676;2023-12-20T07:12:48;5.70;99.90
24468;DHT22;12634;50.852;5.676;2023-12-20T07:15:18;5.70;99.90
24468;DHT22;12634;50.852;5.676;2023-12-20T07:17:45;5.80;99.90
24468;DHT22;12634;50.852;5.676;2023-12-20T07:20:12;5.80;99.90
24468;DHT22;12634;50.852;5.676;2023-12-20T07:22:39;5.80;99.90
24468;DHT22;12634;50.852;5.676;2023-12-20T07:25:07;5.80;99.90
24468;DHT22;12634;50.852;5.676;2023-12-20T07:27:34;5.80;99.90
24468;DHT22;12634;50.852;5.676;2023-12-20T07:30:01;5.70;99.90
24468;DHT22;12634;50.852;5.676;2023-12-20T07:32:30;5.70;99.90
24468;DHT22;12634;50.852;5.676;2023-12-20T07:34:57;5.60;99.90
24468;DHT22;12634;50.852;5.676;2023-12-20T07:37:25;5.50;99.90
24468;DHT22;12634;50.852;5.676;2023-12-20T07:39:52;5.50;99.90
24468;DHT22;12634;50.852;5.676;2023-12-20T07:42:19;5.50;99.90
24468;DHT22;12634;50.852;5.676;2023-12-20T07:44:47;5.60;99.90
24468;DHT22;12634;50.852;5.676;2023-12-20T07:47:15;5.50;99.90
24468;DHT22;12634;50.852;5.676;2023-12-20T07:49:49;5.50;99.90
24468;DHT22;12634;50.852;5.676;2023-12-20T07:52:17;5.50;99.90
24468;DHT22;12634;50.852;5.676;2023-12-20T07:54:44;5.50;99.90
24468;DHT22;12634;50.852;5.676;2023-12-20T07:57:11;5.60;99.90
24468;DHT22;12634;50.852;5.676;2023-12-20T07:59:38;5.60;99.90
24468;DHT22;12634;50.852;5.676;2023-12-20T08:02:06;5.60;99.90
24468;DHT22;12634;50.852;5.676;2023-12-20T08:04:33;5.60;99.90
24468;DHT22;12634;50.852;5.676;2023-12-20T08:07:01;5.60;99.90
24468;DHT22;12634;50.852;5.676;2023-12-20T08:09:29;5.60;99.90
24468;DHT22;12634;50.852;5.676;2023-12-20T08:11:57;5.60;99.90
24468;DHT22;12634;50.852;5.676;2023-12-20T08:14:25;5.50;99.90
24468;DHT22;12634;50.852;5.676;2023-12-20T08:16:52;5.60;99.90
24468;DHT22;12634;50.852;5.676;2023-12-20T08:19:20;5.60;99.90
24468;DHT22;12634;50.852;5.676;2023-12-20T08:21:47;5.60;99.90
24468;DHT22;12634;50.852;5.676;2023-12-20T08:24:15;5.60;99.90
24468;DHT22;12634;50.852;5.676;2023-12-20T08:26:42;5.50;99.90
24468;DHT22;12634;50.852;5.676;2023-12-20T08:29:09;5.50;99.90
24468;DHT22;12634;50.852;5.676;2023-12-20T08:31:37;5.50;99.90
24468;DHT22;12634;50.852;5.676;2023-12-20T08:34:04;5.60;99.90
24468;DHT22;12634;50.852;5.676;2023-12-20T08:36:31;5.70;99.90
24468;DHT22;12634;50.852;5.676;2023-12-20T08:38:58;5.80;99.90
24468;DHT22;12634;50.852;5.676;2023-12-20T08:41:27;5.90;99.90
24468;DHT22;12634;50.852;5.676;2023-12-20T08:43:55;6.00;99.90
24468;DHT22;12634;50.852;5.676;2023-12-20T08:46:22;6.00;99.90
24468;DHT22;12634;50.852;5.676;2023-12-20T08:48:49;6.10;99.90
24468;DHT22;12634;50.852;5.676;2023-12-20T08:51:16;6.10;99.90
24468;DHT22;12634;50.852;5.676;2023-12-20T08:53:44;6.20;99.90
24468;DHT22;12634;50.852;5.676;2023-12-20T08:56:13;6.20;99.90
24468;DHT22;12634;50.852;5.676;2023-12-20T08:58:41;6.20;99.90
24468;DHT22;12634;50.852;5.676;2023-12-20T09:01:09;6.20;99.90
24468;DHT22;12634;50.852;5.676;2023-12-20T09:03:36;6.20;99.90
24468;DHT22;12634;50.852;5.676;2023-12-20T09:06:03;6.20;99.90
24468;DHT22;12634;50.852;5.676;2023-12-20T09:08:31;6.20;99.90
24468;DHT22;12634;50.852;5.676;2023-12-20T09:10:58;6.20;99.90
24468;DHT22;12634;50.852;5.676;2023-12-20T09:13:26;6.20;99.90
24468;DHT22;12634;50.852;5.676;2023-12-20T09:15:55;6.30;99.90
24468;DHT22;12634;50.852;5.676;2023-12-20T09:18:23;6.20;99.90
24468;DHT22;12634;50.852;5.676;2023-12-20T09:20:50;6.20;99.90
24468;DHT22;12634;50.852;5.676;2023-12-20T09:23:17;6.20;99.90
24468;DHT22;12634;50.852;5.676;2023-12-20T09:25:45;6.20;99.90
24468;DHT22;12634;50.852;5.676;2023-12-20T09:28:13;6.10;99.90
24468;DHT22;12634;50.852;5.676;2023-12-20T09:30:40;6.10;99.90
24468;DHT22;12634;50.852;5.676;2023-12-20T09:33:08;6.10;99.90
24468;DHT22;12634;50.852;5.676;2023-12-20T09:35:36;6.40;99.90
24468;DHT22;12634;50.852;5.676;2023-12-20T09:38:03;6.50;99.90
24468;DHT22;12634;50.852;5.676;2023-12-20T09:40:32;6.60;99.90
24468;DHT22;12634;50.852;5.676;2023-12-20T09:43:04;6.50;99.90
24468;DHT22;12634;50.852;5.676;2023-12-20T09:45:36;6.50;99.90
24468;DHT22;12634;50.852;5.676;2023-12-20T09:48:04;6.40;99.90
24468;DHT22;12634;50.852;5.676;2023-12-20T09:50:33;6.20;99.90
24468;DHT22;12634;50.852;5.676;2023-12-20T09:53:02;6.20;99.90
24468;DHT22;12634;50.852;5.676;2023-12-20T09:55:32;6.20;99.90
24468;DHT22;12634;50.852;5.676;2023-12-20T09:58:00;6.40;99.90
24468;DHT22;12634;50.852;5.676;2023-12-20T10:00:27;6.70;99.90
24468;DHT22;12634;50.852;5.676;2023-12-20T10:02:58;7.00;99.90
24468;DHT22;12634;50.852;5.676;2023-12-20T10:05:28;6.90;99.90
24468;DHT22;12634;50.852;5.676;2023-12-20T10:07:57;6.80;99.90
24468;DHT22;12634;50.852;5.676;2023-12-20T10:10:25;7.00;99.90
24468;DHT22;12634;50.852;5.676;2023-12-20T10:13:03;7.00;99.90
24468;DHT22;12634;50.852;5.676;2023-12-20T10:15:30;7.20;99.90
24468;DHT22;12634;50.852;5.676;2023-12-20T10:17:57;7.40;99.90
24468;DHT22;12634;50.852;5.676;2023-12-20T10:20:25;7.40;99.90
24468;DHT22;12634;50.852;5.676;2023-12-20T10:22:56;7.40;99.90
24468;DHT22;12634;50.852;5.676;2023-12-20T10:25:23;7.40;99.90
24468;DHT22;12634;50.852;5.676;2023-12-20T10:28:09;7.40;99.90
24468;DHT22;12634;50.852;5.676;2023-12-20T10:30:36;7.70;99.90
24468;DHT22;12634;50.852;5.676;2023-12-20T10:33:05;8.00;99.90
24468;DHT22;12634;50.852;5.676;2023-12-20T10:35:33;7.70;99.90
24468;DHT22;12634;50.852;5.676;2023-12-20T10:38:03;7.40;99.90
24468;DHT22;12634;50.852;5.676;2023-12-20T10:40:34;7.30;99.90
24468;DHT22;12634;50.852;5.676;2023-12-20T10:43:04;7.20;99.90
24468;DHT22;12634;50.852;5.676;2023-12-20T10:45:31;7.20;99.90
24468;DHT22;12634;50.852;5.676;2023-12-20T10:47:59;7.10;99.90
24468;DHT22;12634;50.852;5.676;2023-12-20T10:50:29;7.10;99.90
24468;DHT22;12634;50.852;5.676;2023-12-20T10:52:57;7.10;99.90
24468;DHT22;12634;50.852;5.676;2023-12-20T10:55:26;7.10;99.90
24468;DHT22;12634;50.852;5.676;2023-12-20T10:57:57;7.10;99.90
24468;DHT22;12634;50.852;5.676;2023-12-20T11:00:29;7.10;99.90
24468;DHT22;12634;50.852;5.676;2023-12-20T11:03:00;7.20;99.90
24468;DHT22;12634;50.852;5.676;2023-12-20T11:05:36;7.20;99.90
24468;DHT22;12634;50.852;5.676;2023-12-20T11:08:11;7.30;99.90
24468;DHT22;12634;50.852;5.676;2023-12-20T11:10:47;7.30;99.90
24468;DHT22;12634;50.852;5.676;2023-12-20T11:13:21;7.30;99.90
24468;DHT22;12634;50.852;5.676;2023-12-20T11:15:49;7.20;99.90
24468;DHT22;12634;50.852;5.676;2023-12-20T11:18:17;7.30;99.90
24468;DHT22;12634;50.852;5.676;2023-12-20T11:20:44;7.30;99.90
24468;DHT22;12634;50.852;5.676;2023-12-20T11:23:11;7.30;99.90
24468;DHT22;12634;50.852;5.676;2023-12-20T11:25:53;7.40;99.90
24468;DHT22;12634;50.852;5.676;2023-12-20T11:28:21;7.40;99.90
24468;DHT22;12634;50.852;5.676;2023-12-20T11:30:51;7.40;99.90
24468;DHT22;12634;50.852;5.676;2023-12-20T11:33:22;7.40;99.90
24468;DHT22;12634;50.852;5.676;2023-12-20T11:35:49;7.40;99.90
24468;DHT22;12634;50.852;5.676;2023-12-20T11:38:17;7.50;99.90
24468;DHT22;12634;50.852;5.676;2023-12-20T11:40:47;7.50;99.90
24468;DHT22;12634;50.852;5.676;2023-12-20T11:43:29;7.50;99.90
24468;DHT22;12634;50.852;5.676;2023-12-20T11:46:03;7.50;99.90
24468;DHT22;12634;50.852;5.676;2023-12-20T11:48:31;7.60;99.90
24468;DHT22;12634;50.852;5.676;2023-12-20T11:50:59;7.60;99.90
24468;DHT22;12634;50.852;5.676;2023-12-20T11:53:26;7.60;99.90
24468;DHT22;12634;50.852;5.676;2023-12-20T11:55:54;7.70;99.90
24468;DHT22;12634;50.852;5.676;2023-12-20T11:58:23;7.60;99.90
24468;DHT22;12634;50.852;5.676;2023-12-20T12:00:50;7.60;99.90
24468;DHT22;12634;50.852;5.676;2023-12-20T12:03:17;7.60;99.90
24468;DHT22;12634;50.852;5.676;2023-12-20T12:05:47;7.60;99.90
24468;DHT22;12634;50.852;5.676;2023-12-20T12:08:14;7.60;99.90
24468;DHT22;12634;50.852;5.676;2023-12-20T12:10:41;7.70;99.90
24468;DHT22;12634;50.852;5.676;2023-12-20T12:13:09;7.80;99.90
24468;DHT22;12634;50.852;5.676;2023-12-20T12:15:37;7.80;99.90
24468;DHT22;12634;50.852;5.676;2023-12-20T12:18:05;7.70;99.90
24468;DHT22;12634;50.852;5.676;2023-12-20T12:20:33;7.70;99.90
24468;DHT22;12634;50.852;5.676;2023-12-20T12:23:01;7.70;99.90
24468;DHT22;12634;50.852;5.676;2023-12-20T12:25:30;7.70;99.90
24468;DHT22;12634;50.852;5.676;2023-12-20T12:27:58;7.70;99.90
24468;DHT22;12634;50.852;5.676;2023-12-20T12:30:25;7.70;99.90
24468;DHT22;12634;50.852;5.676;2023-12-20T12:32:55;7.60;99.90
24468;DHT22;12634;50.852;5.676;2023-12-20T12:35:23;7.50;99.90
24468;DHT22;12634;50.852;5.676;2023-12-20T12:37:51;7.40;99.90
24468;DHT22;12634;50.852;5.676;2023-12-20T12:40:18;7.40;99.90
24468;DHT22;12634;50.852;5.676;2023-12-20T12:42:46;7.40;99.90
24468;DHT22;12634;50.852;5.676;2023-12-20T12:45:13;7.40;99.90
24468;DHT22;12634;50.852;5.676;2023-12-20T12:47:41;7.40;99.90
24468;DHT22;12634;50.852;5.676;2023-12-20T12:50:10;7.30;99.90
24468;DHT22;12634;50.852;5.676;2023-12-20T12:52:37;7.30;99.90
24468;DHT22;12634;50.852;5.676;2023-12-20T12:55:05;7.20;99.90
24468;DHT22;12634;50.852;5.676;2023-12-20T12:57:32;7.10;99.90
24468;DHT22;12634;50.852;5.676;2023-12-20T13:00:00;7.10;99.90
24468;DHT22;12634;50.852;5.676;2023-12-20T13:02:28;7.20;99.90
24468;DHT22;12634;50.852;5.676;2023-12-20T13:04:56;7.20;99.90
24468;DHT22;12634;50.852;5.676;2023-12-20T13:07:25;7.20;99.90
24468;DHT22;12634;50.852;5.676;2023-12-20T13:09:52;7.30;99.90
24468;DHT22;12634;50.852;5.676;2023-12-20T13:12:19;7.30;99.90
24468;DHT22;12634;50.852;5.676;2023-12-20T13:14:47;7.30;99.90
24468;DHT22;12634;50.852;5.676;2023-12-20T13:17:14;7.40;99.90
24468;DHT22;12634;50.852;5.676;2023-12-20T13:19:42;7.40;99.90
24468;DHT22;12634;50.852;5.676;2023-12-20T13:22:09;7.40;99.90
24468;DHT22;12634;50.852;5.676;2023-12-20T13:24:38;7.40;99.90
24468;DHT22;12634;50.852;5.676;2023-12-20T13:27:05;7.40;99.90
24468;DHT22;12634;50.852;5.676;2023-12-20T13:29:32;7.40;99.90
24468;DHT22;12634;50.852;5.676;2023-12-20T13:31:59;7.40;99.90
24468;DHT22;12634;50.852;5.676;2023-12-20T13:34:26;7.50;99.90
24468;DHT22;12634;50.852;5.676;2023-12-20T13:36:54;7.50;99.90
24468;DHT22;12634;50.852;5.676;2023-12-20T13:39:22;7.50;99.90
24468;DHT22;12634;50.852;5.676;2023-12-20T13:41:51;7.60;99.90
24468;DHT22;12634;50.852;5.676;2023-12-20T13:44:18;7.60;99.90
24468;DHT22;12634;50.852;5.676;2023-12-20T13:46:45;7.70;99.90
24468;DHT22;12634;50.852;5.676;2023-12-20T13:49:12;7.70;99.90
24468;DHT22;12634;50.852;5.676;2023-12-20T13:51:40;7.70;99.90
24468;DHT22;12634;50.852;5.676;2023-12-20T13:54:07;7.70;99.90
24468;DHT22;12634;50.852;5.676;2023-12-20T13:56:36;7.80;99.90
24468;DHT22;12634;50.852;5.676;2023-12-20T13:59:05;7.80;99.90
24468;DHT22;12634;50.852;5.676;2023-12-20T14:01:32;7.80;99.90
24468;DHT22;12634;50.852;5.676;2023-12-20T14:03:59;7.80;99.90
24468;DHT22;12634;50.852;5.676;2023-12-20T14:06:27;7.90;99.90
24468;DHT22;12634;50.852;5.676;2023-12-20T14:08:55;7.80;99.90
24468;DHT22;12634;50.852;5.676;2023-12-20T14:11:22;7.80;99.90
24468;DHT22;12634;50.852;5.676;2023-12-20T14:13:49;7.80;99.90
24468;DHT22;12634;50.852;5.676;2023-12-20T14:16:18;7.80;99.90
24468;DHT22;12634;50.852;5.676;2023-12-20T14:18:45;7.80;99.90
24468;DHT22;12634;50.852;5.676;2023-12-20T14:21:12;7.80;99.90
24468;DHT22;12634;50.852;5.676;2023-12-20T14:23:39;7.80;99.90
24468;DHT22;12634;50.852;5.676;2023-12-20T14:26:07;7.80;99.90
24468;DHT22;12634;50.852;5.676;2023-12-20T14:28:37;7.80;99.90
24468;DHT22;12634;50.852;5.676;2023-12-20T14:31:05;7.70;99.90
24468;DHT22;12634;50.852;5.676;2023-12-20T14:33:34;7.70;99.90
24468;DHT22;12634;50.852;5.676;2023-12-20T14:36:02;7.80;99.90
24468;DHT22;12634;50.852;5.676;2023-12-20T14:38:31;7.70;99.90
24468;DHT22;12634;50.852;5.676;2023-12-20T14:40:58;7.70;99.90
24468;DHT22;12634;50.852;5.676;2023-12-20T14:43:26;7.70;99.90
24468;DHT22;12634;50.852;5.676;2023-12-20T14:45:53;7.70;99.90
24468;DHT22;12634;50.852;5.676;2023-12-20T14:48:20;7.60;99.90
24468;DHT22;12634;50.852;5.676;2023-12-20T14:50:49;7.60;99.90
24468;DHT22;12634;50.852;5.676;2023-12-20T14:53:18;7.70;99.90
24468;DHT22;12634;50.852;5.676;2023-12-20T14:55:45;7.80;99.90
24468;DHT22;12634;50.852;5.676;2023-12-20T14:58:12;7.70;99.90
24468;DHT22;12634;50.852;5.676;2023-12-20T15:00:40;7.80;99.90
24468;DHT22;12634;50.852;5.676;2023-12-20T15:03:08;7.70;99.90
24468;DHT22;12634;50.852;5.676;2023-12-20T15:05:35;7.80;99.90
24468;DHT22;12634;50.852;5.676;2023-12-20T15:08:04;7.80;99.90
24468;DHT22;12634;50.852;5.676;2023-12-20T15:10:32;7.80;99.90
24468;DHT22;12634;50.852;5.676;2023-12-20T15:12:59;7.80;99.90
24468;DHT22;12634;50.852;5.676;2023-12-20T15:15:26;7.80;99.90
24468;DHT22;12634;50.852;5.676;2023-12-20T15:17:54;7.80;99.90
24468;DHT22;12634;50.852;5.676;2023-12-20T15:20:21;7.90;99.90
24468;DHT22;12634;50.852;5.676;2023-12-20T15:22:49;7.90;99.90
24468;DHT22;12634;50.852;5.676;2023-12-20T15:25:18;7.90;99.90
24468;DHT22;12634;50.852;5.676;2023-12-20T15:27:47;7.90;99.90
24468;DHT22;12634;50.852;5.676;2023-12-20T15:30:18;7.90;99.90
24468;DHT22;12634;50.852;5.676;2023-12-20T15:32:45;7.90;99.90
24468;DHT22;12634;50.852;5.676;2023-12-20T15:35:12;7.90;99.90
24468;DHT22;12634;50.852;5.676;2023-12-20T15:37:40;8.00;99.90
24468;DHT22;12634;50.852;5.676;2023-12-20T15:40:08;8.00;99.90
24468;DHT22;12634;50.852;5.676;2023-12-20T15:42:38;8.00;99.90
24468;DHT22;12634;50.852;5.676;2023-12-20T15:45:06;8.00;99.90
24468;DHT22;12634;50.852;5.676;2023-12-20T15:47:34;8.00;99.90
24468;DHT22;12634;50.852;5.676;2023-12-20T15:50:02;8.00;99.90